Time;durP1;ratioP1;P1;durP2;ratioP2;P2;SDS_P1;SDS_P2;PMS_P1;PMS_P2;Temp;Humidity;BMP_temperature;BMP_pressure;BME280_temperature;BME280_humidity;BME280_pressure;Samples;Min_cycle;Max_cycle;Signal;HPM_P1;HPM_P2
2021/09/23 00:02:47;;;;;;;;;;;23.20;52.00;;;;;;5076192;28;19924;-61
2021/09/23 00:05:17;;;;;;;;;;;23.20;51.70;;;;;;5059268;28;20347;-61
2021/09/23 00:07:45;;;;;;;;;;;23.20;51.70;;;;;;5074690;28;19924;-61
2021/09/23 00:10:15;;;;;;;;;;;23.20;51.60;;;;;;5059150;28;19968;-61
2021/09/23 00:12:43;;;;;;;;;;;23.20;51.60;;;;;;5058766;28;19938;-61
2021/09/23 00:15:11;;;;;;;;;;;23.20;51.60;;;;;;5075827;28;19967;-61
2021/09/23 00:17:38;;;;;;;;;;;23.20;51.60;;;;;;5074468;28;19982;-61
2021/09/23 00:20:05;;;;;;;;;;;23.20;51.60;;;;;;5074538;28;19974;-61
2021/09/23 00:22:32;;;;;;;;;;;23.20;51.50;;;;;;5074746;28;19924;-61
2021/09/23 00:24:59;;;;;;;;;;;23.20;51.50;;;;;;5075662;28;19924;-61
2021/09/23 00:27:26;;;;;;;;;;;23.20;51.50;;;;;;5074380;28;19947;-61
2021/09/23 00:29:53;;;;;;;;;;;23.20;51.50;;;;;;5060692;28;19924;-61
2021/09/23 00:32:20;;;;;;;;;;;23.20;51.50;;;;;;5063079;28;19964;-61
2021/09/23 00:34:47;;;;;;;;;;;23.20;51.50;;;;;;5062615;28;20303;-61
2021/09/23 00:37:15;;;;;;;;;;;23.20;51.50;;;;;;5069958;28;19932;-61
2021/09/23 00:39:42;;;;;;;;;;;23.20;51.40;;;;;;5075405;28;20384;-61
2021/09/23 00:42:09;;;;;;;;;;;23.20;51.50;;;;;;5075347;28;19928;-61
2021/09/23 00:44:38;;;;;;;;;;;23.20;51.40;;;;;;5075654;28;19970;-61
2021/09/23 00:47:05;;;;;;;;;;;23.20;51.40;;;;;;5074328;28;19932;-61
2021/09/23 00:49:32;;;;;;;;;;;23.20;51.40;;;;;;5068902;28;19955;-61
2021/09/23 00:51:59;;;;;;;;;;;23.20;51.30;;;;;;5064353;28;19932;-60
2021/09/23 00:54:26;;;;;;;;;;;23.10;51.30;;;;;;5070557;28;19929;-61
2021/09/23 00:56:53;;;;;;;;;;;23.10;51.30;;;;;;5058465;28;19932;-60
2021/09/23 00:59:20;;;;;;;;;;;23.10;51.30;;;;;;5059791;28;20445;-61
2021/09/23 01:01:47;;;;;;;;;;;23.10;51.30;;;;;;5075008;28;19974;-61
2021/09/23 01:04:14;;;;;;;;;;;23.10;51.30;;;;;;5074491;28;19932;-61
2021/09/23 01:06:42;;;;;;;;;;;23.20;51.40;;;;;;5058160;28;19924;-61
2021/09/23 01:09:09;;;;;;;;;;;23.10;51.30;;;;;;5074808;28;19932;-61
2021/09/23 01:11:36;;;;;;;;;;;23.10;51.30;;;;;;5073868;28;19978;-61
2021/09/23 01:14:03;;;;;;;;;;;23.10;51.20;;;;;;5104641;28;19924;-61
2021/09/23 01:16:30;;;;;;;;;;;23.10;51.30;;;;;;5074266;28;19931;-61
2021/09/23 01:18:57;;;;;;;;;;;23.10;51.20;;;;;;5089494;27;20324;-61
2021/09/23 01:21:24;;;;;;;;;;;23.10;51.30;;;;;;5088833;28;19939;-61
2021/09/23 01:23:51;;;;;;;;;;;23.10;51.20;;;;;;5073488;28;19925;-61
2021/09/23 01:26:19;;;;;;;;;;;23.10;51.30;;;;;;5061054;28;19928;-60
2021/09/23 01:28:46;;;;;;;;;;;23.10;51.20;;;;;;5063746;28;19928;-61
2021/09/23 01:31:13;;;;;;;;;;;23.10;51.30;;;;;;5062851;28;20414;-61
2021/09/23 01:33:40;;;;;;;;;;;23.10;51.80;;;;;;5068466;28;20018;-61
2021/09/23 01:36:07;;;;;;;;;;;23.10;51.20;;;;;;5074225;28;20428;-61
2021/09/23 01:38:34;;;;;;;;;;;23.10;51.20;;;;;;5064296;28;19940;-61
2021/09/23 01:41:01;;;;;;;;;;;23.10;51.20;;;;;;5058139;28;19925;-61
2021/09/23 01:43:28;;;;;;;;;;;23.10;51.30;;;;;;5058080;28;19936;-61
2021/09/23 01:45:55;;;;;;;;;;;23.10;51.20;;;;;;5063442;28;19924;-61
2021/09/23 01:48:22;;;;;;;;;;;23.10;51.20;;;;;;5073831;28;19925;-61
2021/09/23 01:50:50;;;;;;;;;;;23.10;51.10;;;;;;5074000;28;19931;-61
2021/09/23 01:53:17;;;;;;;;;;;23.10;51.10;;;;;;5074238;28;19928;-61
2021/09/23 01:55:44;;;;;;;;;;;23.10;51.10;;;;;;5072636;28;19947;-61
2021/09/23 01:58:10;;;;;;;;;;;23.10;51.10;;;;;;5073848;28;19925;-61
2021/09/23 02:00:38;;;;;;;;;;;23.10;51.10;;;;;;5073939;28;19950;-61
2021/09/23 02:03:05;;;;;;;;;;;23.10;51.10;;;;;;5056891;28;19931;-61
2021/09/23 02:05:32;;;;;;;;;;;23.10;51.10;;;;;;5072555;28;19925;-61
2021/09/23 02:07:59;;;;;;;;;;;23.10;51.10;;;;;;5073368;28;19930;-62
2021/09/23 02:10:26;;;;;;;;;;;23.10;51.10;;;;;;5071832;28;19932;-61
2021/09/23 02:12:55;;;;;;;;;;;23.10;51.10;;;;;;5073803;28;19925;-61
2021/09/23 02:15:22;;;;;;;;;;;23.10;51.10;;;;;;5072887;28;19924;-61
2021/09/23 02:17:49;;;;;;;;;;;23.10;51.10;;;;;;5073671;28;20006;-61
2021/09/23 02:20:16;;;;;;;;;;;23.00;51.00;;;;;;5073988;28;19964;-61
2021/09/23 02:22:43;;;;;;;;;;;23.00;51.00;;;;;;5073654;28;19924;-61
2021/09/23 02:25:11;;;;;;;;;;;23.10;51.10;;;;;;5073672;28;19929;-61
2021/09/23 02:27:38;;;;;;;;;;;23.00;51.00;;;;;;5072438;28;19986;-61
2021/09/23 02:30:05;;;;;;;;;;;23.00;51.00;;;;;;5073578;28;19924;-61
2021/09/23 02:32:32;;;;;;;;;;;23.00;51.00;;;;;;5073498;28;19925;-61
2021/09/23 02:34:59;;;;;;;;;;;23.00;50.90;;;;;;5073487;28;19924;-61
2021/09/23 02:37:26;;;;;;;;;;;23.00;51.00;;;;;;5066547;28;19931;-61
2021/09/23 02:39:54;;;;;;;;;;;23.00;50.90;;;;;;5062451;28;20721;-61
2021/09/23 02:42:21;;;;;;;;;;;23.00;50.90;;;;;;5066757;28;19929;-61
2021/09/23 02:44:48;;;;;;;;;;;23.00;50.90;;;;;;5056895;28;19982;-62
2021/09/23 02:47:15;;;;;;;;;;;23.00;50.90;;;;;;5060643;28;19924;-61
2021/09/23 02:49:42;;;;;;;;;;;23.10;51.00;;;;;;5073289;28;19925;-61
2021/09/23 02:52:09;;;;;;;;;;;23.00;50.90;;;;;;5071966;28;19928;-61
2021/09/23 02:54:36;;;;;;;;;;;23.00;50.80;;;;;;5074096;28;20388;-60
2021/09/23 02:57:03;;;;;;;;;;;23.00;50.80;;;;;;5073421;28;19924;-61
2021/09/23 02:59:30;;;;;;;;;;;23.00;50.80;;;;;;5072212;28;19932;-61
2021/09/23 03:01:57;;;;;;;;;;;23.00;50.80;;;;;;5072625;28;19924;-61
2021/09/23 03:04:24;;;;;;;;;;;23.00;50.80;;;;;;5071593;28;20004;-61
2021/09/23 03:06:51;;;;;;;;;;;23.00;50.80;;;;;;5072785;28;19924;-61
2021/09/23 03:09:18;;;;;;;;;;;23.00;50.80;;;;;;5088918;28;20322;-61
2021/09/23 03:11:45;;;;;;;;;;;23.00;50.70;;;;;;5079105;28;19929;-61
2021/09/23 03:14:13;;;;;;;;;;;23.00;50.80;;;;;;5077289;28;19947;-61
2021/09/23 03:16:40;;;;;;;;;;;23.00;50.70;;;;;;5096016;27;19925;-61
2021/09/23 03:19:07;;;;;;;;;;;23.00;50.70;;;;;;5059115;28;19932;-61
2021/09/23 03:21:34;;;;;;;;;;;23.10;50.80;;;;;;5071819;28;19928;-61
2021/09/23 03:24:01;;;;;;;;;;;23.00;50.60;;;;;;5076704;28;19924;-61
2021/09/23 03:26:28;;;;;;;;;;;23.00;50.70;;;;;;5075300;28;19928;-61
2021/09/23 03:28:55;;;;;;;;;;;23.00;50.70;;;;;;5076647;28;19925;-61
2021/09/23 03:31:22;;;;;;;;;;;23.00;50.60;;;;;;5075418;28;19977;-61
2021/09/23 03:33:49;;;;;;;;;;;23.00;50.70;;;;;;5069117;28;20007;-61
2021/09/23 03:36:16;;;;;;;;;;;23.00;50.70;;;;;;5066095;28;20265;-61
2021/09/23 03:38:43;;;;;;;;;;;23.00;50.60;;;;;;5076487;28;19924;-61
2021/09/23 03:41:10;;;;;;;;;;;23.00;50.60;;;;;;5075178;28;19925;-61
2021/09/23 03:43:37;;;;;;;;;;;23.10;50.70;;;;;;5076771;28;19970;-61
2021/09/23 03:46:04;;;;;;;;;;;23.00;50.60;;;;;;5076628;28;20347;-61
2021/09/23 03:48:32;;;;;;;;;;;23.00;50.60;;;;;;5075250;28;19924;-61
2021/09/23 03:50:59;;;;;;;;;;;23.00;50.60;;;;;;5076385;28;19924;-61
2021/09/23 03:53:26;;;;;;;;;;;23.00;50.60;;;;;;5057883;28;20289;-61
2021/09/23 03:55:53;;;;;;;;;;;23.00;50.60;;;;;;5074493;28;19924;-61
2021/09/23 03:58:20;;;;;;;;;;;23.00;50.60;;;;;;5074805;28;19931;-61
2021/09/23 04:00:47;;;;;;;;;;;23.00;50.60;;;;;;5075264;28;19931;-61
2021/09/23 04:03:14;;;;;;;;;;;23.00;50.60;;;;;;5076169;28;19925;-61
2021/09/23 04:05:42;;;;;;;;;;;23.00;50.60;;;;;;5060985;28;19983;-61
2021/09/23 04:08:09;;;;;;;;;;;23.00;50.60;;;;;;5075779;28;19932;-61
2021/09/23 04:10:36;;;;;;;;;;;23.00;50.50;;;;;;5075979;28;19959;-61
2021/09/23 04:13:03;;;;;;;;;;;23.00;50.60;;;;;;5074598;28;19979;-61
2021/09/23 04:15:30;;;;;;;;;;;23.00;50.50;;;;;;5075854;28;19932;-61
2021/09/23 04:17:57;;;;;;;;;;;23.00;50.50;;;;;;5075652;28;20380;-61
2021/09/23 04:20:24;;;;;;;;;;;23.00;50.50;;;;;;5075136;28;19931;-61
2021/09/23 04:22:51;;;;;;;;;;;23.00;50.50;;;;;;5089644;28;19924;-61
2021/09/23 04:25:19;;;;;;;;;;;23.00;50.50;;;;;;5075759;28;20519;-61
2021/09/23 04:27:46;;;;;;;;;;;23.00;50.50;;;;;;5074220;28;20011;-61
2021/09/23 04:30:13;;;;;;;;;;;23.00;50.50;;;;;;5075613;28;20403;-61
2021/09/23 04:32:40;;;;;;;;;;;23.00;50.50;;;;;;5075523;28;19925;-61
2021/09/23 04:35:07;;;;;;;;;;;23.00;50.50;;;;;;5075557;28;19965;-61
2021/09/23 04:37:34;;;;;;;;;;;23.00;50.50;;;;;;5072354;28;19924;-61
2021/09/23 04:40:01;;;;;;;;;;;23.00;50.50;;;;;;5059764;28;19931;-61
2021/09/23 04:42:29;;;;;;;;;;;23.00;50.50;;;;;;5075682;28;19924;-61
2021/09/23 04:44:56;;;;;;;;;;;23.00;50.50;;;;;;5075266;28;19970;-61
2021/09/23 04:47:23;;;;;;;;;;;23.00;50.50;;;;;;5074761;28;19932;-61
2021/09/23 04:49:50;;;;;;;;;;;23.00;50.40;;;;;;5075504;28;19924;-61
2021/09/23 04:52:17;;;;;;;;;;;23.00;50.50;;;;;;5074260;28;20347;-61
2021/09/23 04:54:45;;;;;;;;;;;23.00;51.00;;;;;;5072575;28;20019;-61
2021/09/23 04:57:12;;;;;;;;;;;23.00;50.40;;;;;;5070211;28;19932;-61
2021/09/23 04:59:39;;;;;;;;;;;23.00;50.40;;;;;;5071988;28;19955;-61
2021/09/23 05:02:06;;;;;;;;;;;23.00;50.40;;;;;;5107367;27;19931;-61
2021/09/23 05:04:34;;;;;;;;;;;23.00;50.40;;;;;;5074865;28;19939;-61
2021/09/23 05:07:02;;;;;;;;;;;23.00;50.40;;;;;;5061995;28;19925;-61
2021/09/23 05:09:30;;;;;;;;;;;23.00;50.40;;;;;;5071045;28;20001;-61
2021/09/23 05:11:58;;;;;;;;;;;23.00;50.40;;;;;;5074772;28;19934;-61
2021/09/23 05:14:26;;;;;;;;;;;23.00;50.40;;;;;;5074718;28;20037;-61
2021/09/23 05:16:53;;;;;;;;;;;23.00;50.30;;;;;;5072411;28;20372;-61
2021/09/23 05:19:20;;;;;;;;;;;23.00;50.30;;;;;;5058213;28;19950;-61
2021/09/23 05:21:47;;;;;;;;;;;23.00;50.30;;;;;;5066168;28;19924;-61
2021/09/23 05:24:17;;;;;;;;;;;23.00;50.30;;;;;;5073266;28;19933;-61
2021/09/23 05:26:44;;;;;;;;;;;23.00;50.30;;;;;;5068075;28;19925;-61
2021/09/23 05:29:11;;;;;;;;;;;23.00;50.30;;;;;;5062393;28;19928;-61
2021/09/23 05:31:50;;;;;;;;;;;23.00;50.20;;;;;;5103362;27;19956;-61
2021/09/23 05:34:18;;;;;;;;;;;23.00;50.20;;;;;;5074572;28;19924;-61
2021/09/23 05:36:45;;;;;;;;;;;23.00;50.20;;;;;;5070108;28;19925;-61
2021/09/23 05:39:12;;;;;;;;;;;23.00;50.20;;;;;;5060049;28;20407;-61
2021/09/23 05:41:41;;;;;;;;;;;23.00;50.10;;;;;;5074052;28;19924;-61
2021/09/23 05:44:08;;;;;;;;;;;23.00;50.20;;;;;;5074403;28;19940;-61
2021/09/23 05:46:40;;;;;;;;;;;23.00;50.10;;;;;;5074266;28;19970;-61
2021/09/23 05:49:07;;;;;;;;;;;23.00;50.10;;;;;;5073699;28;19974;-61
2021/09/23 05:51:34;;;;;;;;;;;23.00;50.00;;;;;;5073603;28;19931;-61
2021/09/23 05:54:01;;;;;;;;;;;23.00;50.00;;;;;;5072700;28;19924;-61
2021/09/23 05:56:28;;;;;;;;;;;23.00;50.00;;;;;;5073400;28;19924;-61
2021/09/23 05:58:55;;;;;;;;;;;23.00;50.00;;;;;;5054338;28;20081;-61
2021/09/23 06:01:22;;;;;;;;;;;23.00;50.00;;;;;;5073299;28;19932;-61
2021/09/23 06:03:54;;;;;;;;;;;23.10;50.10;;;;;;5072587;28;20011;-61
2021/09/23 06:06:21;;;;;;;;;;;23.10;50.00;;;;;;5058269;28;19925;-61
2021/09/23 06:08:48;;;;;;;;;;;23.10;50.00;;;;;;5072233;28;20261;-61
2021/09/23 06:11:15;;;;;;;;;;;23.10;50.00;;;;;;5072211;28;19924;-61
2021/09/23 06:13:43;;;;;;;;;;;23.10;50.00;;;;;;5073815;28;19924;-61
2021/09/23 06:16:10;;;;;;;;;;;23.10;50.00;;;;;;5073635;28;19988;-61
2021/09/23 06:18:38;;;;;;;;;;;23.10;49.90;;;;;;5071891;28;19977;-61
2021/09/23 06:21:05;;;;;;;;;;;23.10;49.90;;;;;;5073576;28;19932;-61
2021/09/23 06:23:34;;;;;;;;;;;23.10;49.90;;;;;;5073804;28;19932;-61
2021/09/23 06:26:01;;;;;;;;;;;23.10;49.90;;;;;;5063893;28;20333;-61
2021/09/23 06:28:29;;;;;;;;;;;23.10;49.90;;;;;;5064621;28;19925;-61
2021/09/23 06:30:57;;;;;;;;;;;23.10;49.90;;;;;;5072165;28;19967;-61
2021/09/23 06:33:24;;;;;;;;;;;23.20;49.90;;;;;;5073386;28;19981;-61
2021/09/23 06:35:51;;;;;;;;;;;23.10;49.80;;;;;;5073469;28;20300;-61
2021/09/23 06:38:18;;;;;;;;;;;23.20;49.80;;;;;;5072452;28;19932;-61
2021/09/23 06:40:45;;;;;;;;;;;23.20;49.80;;;;;;5069382;28;19925;-61
2021/09/23 06:43:12;;;;;;;;;;;23.20;49.80;;;;;;5057546;28;19947;-61
2021/09/23 06:45:39;;;;;;;;;;;23.20;49.80;;;;;;5109032;27;19925;-61
2021/09/23 06:48:06;;;;;;;;;;;23.20;49.80;;;;;;5076088;28;19970;-61
2021/09/23 06:50:33;;;;;;;;;;;23.20;49.80;;;;;;5060408;28;19986;-60
2021/09/23 06:53:00;;;;;;;;;;;23.20;49.70;;;;;;5076947;28;19932;-60
2021/09/23 06:55:27;;;;;;;;;;;23.20;49.70;;;;;;5075562;28;20039;-60
2021/09/23 06:57:55;;;;;;;;;;;23.20;49.70;;;;;;5072636;28;19982;-60
2021/09/23 07:00:22;;;;;;;;;;;23.20;49.70;;;;;;5075246;28;19951;-61
2021/09/23 07:02:49;;;;;;;;;;;23.20;49.70;;;;;;5061493;28;19928;-60
2021/09/23 07:05:17;;;;;;;;;;;23.20;49.60;;;;;;5060764;28;19925;-60
2021/09/23 07:07:45;;;;;;;;;;;23.20;49.60;;;;;;5060847;28;20339;-60
2021/09/23 07:10:12;;;;;;;;;;;23.20;49.60;;;;;;5073699;28;19925;-60
2021/09/23 07:12:39;;;;;;;;;;;23.20;49.60;;;;;;5065455;28;20171;-60
2021/09/23 07:15:06;;;;;;;;;;;23.20;49.60;;;;;;5071951;28;19925;-60
2021/09/23 07:17:34;;;;;;;;;;;23.20;49.60;;;;;;5069442;28;19931;-60
2021/09/23 07:20:01;;;;;;;;;;;23.20;49.60;;;;;;5068925;28;19925;-61
2021/09/23 07:22:28;;;;;;;;;;;23.30;49.60;;;;;;5068715;28;20332;-61
2021/09/23 07:24:55;;;;;;;;;;;23.30;49.60;;;;;;5060349;28;19933;-61
2021/09/23 07:27:22;;;;;;;;;;;23.30;49.60;;;;;;5066946;28;20300;-61
2021/09/23 07:29:49;;;;;;;;;;;23.30;49.50;;;;;;5076956;28;19943;-61
2021/09/23 07:32:17;;;;;;;;;;;23.30;49.50;;;;;;5076974;28;19968;-61
2021/09/23 07:34:44;;;;;;;;;;;23.30;49.60;;;;;;5076521;28;19924;-61
2021/09/23 07:37:11;;;;;;;;;;;23.30;49.50;;;;;;5076272;28;19931;-61
2021/09/23 07:39:39;;;;;;;;;;;23.30;49.60;;;;;;5076337;28;19933;-61
2021/09/23 07:42:06;;;;;;;;;;;23.30;49.50;;;;;;5108663;27;19924;-61
2021/09/23 07:44:35;;;;;;;;;;;23.30;49.60;;;;;;5076771;28;19981;-61
2021/09/23 07:47:03;;;;;;;;;;;23.30;49.60;;;;;;5059567;28;20011;-61
2021/09/23 07:49:30;;;;;;;;;;;23.30;49.60;;;;;;5076364;28;19928;-61
2021/09/23 07:51:57;;;;;;;;;;;23.40;49.60;;;;;;5075913;28;19925;-61
2021/09/23 07:54:24;;;;;;;;;;;23.30;49.60;;;;;;5075631;28;19924;-60
2021/09/23 07:56:51;;;;;;;;;;;23.30;49.60;;;;;;5073339;28;19929;-61
2021/09/23 07:59:18;;;;;;;;;;;23.30;49.50;;;;;;5075288;28;20296;-61
2021/09/23 08:01:45;;;;;;;;;;;23.30;49.60;;;;;;5076348;28;19946;-60
2021/09/23 08:04:12;;;;;;;;;;;23.30;49.60;;;;;;5076102;28;19932;-60
2021/09/23 08:06:40;;;;;;;;;;;23.30;49.60;;;;;;5075039;28;19928;-60
2021/09/23 08:09:07;;;;;;;;;;;23.30;49.60;;;;;;5075878;28;19924;-61
2021/09/23 08:11:34;;;;;;;;;;;23.30;49.60;;;;;;5075882;28;19929;-61
2021/09/23 08:14:02;;;;;;;;;;;23.40;49.60;;;;;;5075901;28;19936;-61
2021/09/23 08:16:29;;;;;;;;;;;23.40;49.60;;;;;;5075848;28;19924;-60
2021/09/23 08:18:56;;;;;;;;;;;23.40;49.60;;;;;;5068868;28;19978;-61
2021/09/23 08:21:23;;;;;;;;;;;23.40;49.60;;;;;;5083260;28;19932;-61
2021/09/23 08:23:51;;;;;;;;;;;23.40;50.30;;;;;;5086117;28;20330;-61
2021/09/23 08:26:25;;;;;;;;;;;23.40;49.60;;;;;;5068501;28;19955;-60
2021/09/23 08:28:52;;;;;;;;;;;23.40;49.60;;;;;;5064790;28;19924;-61
2021/09/23 08:31:21;;;;;;;;;;;23.40;49.60;;;;;;5071061;28;19967;-60
2021/09/23 08:33:49;;;;;;;;;;;23.50;49.70;;;;;;5062678;28;19931;-61
2021/09/23 08:36:16;;;;;;;;;;;23.50;49.70;;;;;;5071042;28;19928;-61
2021/09/23 08:38:45;;;;;;;;;;;23.50;49.70;;;;;;5061136;28;19929;-60
2021/09/23 08:41:14;;;;;;;;;;;23.50;49.70;;;;;;5074188;28;19924;-60
2021/09/23 08:43:41;;;;;;;;;;;23.50;49.80;;;;;;5075599;28;19924;-60
2021/09/23 08:46:08;;;;;;;;;;;23.50;49.80;;;;;;5075356;28;19924;-61
2021/09/23 08:48:35;;;;;;;;;;;23.50;49.70;;;;;;5057660;28;19925;-61
2021/09/23 08:51:02;;;;;;;;;;;23.50;49.80;;;;;;5074713;28;20015;-60
2021/09/23 08:53:31;;;;;;;;;;;23.50;49.80;;;;;;5073466;28;19935;-61
2021/09/23 08:55:58;;;;;;;;;;;23.50;49.80;;;;;;5074133;28;19967;-60
2021/09/23 08:58:25;;;;;;;;;;;23.50;49.80;;;;;;5060946;28;19932;-61
2021/09/23 09:01:20;;;;;;;;;;;23.50;49.80;;;;;;5074945;28;19963;-61
2021/09/23 09:03:56;;;;;;;;;;;23.50;49.80;;;;;;5072423;28;19931;-60
2021/09/23 09:06:24;;;;;;;;;;;23.50;49.80;;;;;;5074517;28;19924;-61
2021/09/23 09:08:51;;;;;;;;;;;23.50;49.80;;;;;;5073304;28;19925;-61
2021/09/23 09:11:18;;;;;;;;;;;23.50;49.80;;;;;;5072240;28;19951;-60
2021/09/23 09:13:46;;;;;;;;;;;23.50;49.80;;;;;;5074768;28;19924;-60
2021/09/23 09:16:15;;;;;;;;;;;23.50;49.80;;;;;;5074871;28;19925;-60
2021/09/23 09:18:46;;;;;;;;;;;23.60;50.00;;;;;;5073492;28;20334;-61
2021/09/23 09:21:14;;;;;;;;;;;23.60;49.90;;;;;;5074598;28;19931;-61
2021/09/23 09:23:41;;;;;;;;;;;23.60;50.00;;;;;;5074797;28;19974;-61
2021/09/23 09:26:08;;;;;;;;;;;23.60;50.00;;;;;;5061002;28;19932;-61
2021/09/23 09:28:46;;;;;;;;;;;23.60;50.00;;;;;;5058135;28;20245;-61
2021/09/23 09:31:13;;;;;;;;;;;23.60;49.90;;;;;;5056660;28;19924;-61
2021/09/23 09:33:42;;;;;;;;;;;23.60;50.00;;;;;;5057866;28;19929;-61
2021/09/23 09:36:23;;;;;;;;;;;23.60;50.00;;;;;;5082208;28;19936;-61
2021/09/23 09:38:51;;;;;;;;;;;23.60;50.00;;;;;;5074077;28;19928;-61
2021/09/23 09:41:26;;;;;;;;;;;23.60;50.00;;;;;;5073062;28;19924;-61
2021/09/23 09:43:57;;;;;;;;;;;23.60;50.00;;;;;;5074035;28;20376;-61
2021/09/23 09:46:29;;;;;;;;;;;23.60;50.00;;;;;;5104136;28;19950;-61
2021/09/23 09:48:57;;;;;;;;;;;23.60;50.10;;;;;;5074151;28;19967;-60
2021/09/23 09:51:35;;;;;;;;;;;23.60;50.10;;;;;;5071263;28;19962;-61
2021/09/23 09:54:02;;;;;;;;;;;23.60;50.10;;;;;;5063306;28;19924;-61
2021/09/23 09:56:30;;;;;;;;;;;23.70;50.20;;;;;;5071089;28;19924;-61
2021/09/23 09:59:04;;;;;;;;;;;23.70;50.20;;;;;;5074241;28;19925;-61
2021/09/23 10:01:31;;;;;;;;;;;23.70;50.10;;;;;;5081965;28;19924;-61
2021/09/23 10:03:59;;;;;;;;;;;23.70;50.10;;;;;;5082695;28;19939;-61
2021/09/23 10:06:29;;;;;;;;;;;23.70;50.10;;;;;;5073896;28;19924;-61
2021/09/23 10:08:57;;;;;;;;;;;23.70;50.10;;;;;;5073701;28;19925;-61
2021/09/23 10:11:25;;;;;;;;;;;23.70;50.10;;;;;;5074049;28;19974;-61
2021/09/23 10:13:57;;;;;;;;;;;23.70;50.10;;;;;;5073710;28;20376;-61
2021/09/23 10:16:24;;;;;;;;;;;23.70;50.10;;;;;;5072230;28;20296;-61
2021/09/23 10:18:51;;;;;;;;;;;23.70;50.10;;;;;;5060154;28;19928;-61
2021/09/23 10:21:21;;;;;;;;;;;23.70;50.10;;;;;;5073567;28;19932;-61
2021/09/23 10:23:49;;;;;;;;;;;23.80;50.10;;;;;;5071350;28;19932;-61
2021/09/23 10:26:17;;;;;;;;;;;23.80;50.20;;;;;;5057410;28;19973;-61
2021/09/23 10:28:46;;;;;;;;;;;23.80;50.20;;;;;;5056343;28;20509;-61
2021/09/23 10:31:20;;;;;;;;;;;23.80;50.10;;;;;;5072633;28;19970;-61
2021/09/23 10:33:48;;;;;;;;;;;23.80;50.20;;;;;;5073233;28;19931;-61
2021/09/23 10:36:15;;;;;;;;;;;23.80;50.20;;;;;;5072815;28;19924;-61
2021/09/23 10:38:44;;;;;;;;;;;23.80;50.30;;;;;;5071674;28;20015;-61
2021/09/23 10:41:12;;;;;;;;;;;23.80;50.20;;;;;;5070695;28;19972;-61
2021/09/23 10:43:40;;;;;;;;;;;23.80;50.30;;;;;;5073187;28;19931;-61
2021/09/23 10:46:07;;;;;;;;;;;23.80;50.30;;;;;;5058219;28;20291;-61
2021/09/23 10:48:35;;;;;;;;;;;23.80;50.30;;;;;;5103769;28;19978;-60
2021/09/23 10:51:03;;;;;;;;;;;23.80;50.30;;;;;;5073408;28;20011;-60
2021/09/23 10:53:31;;;;;;;;;;;23.80;50.30;;;;;;5059359;28;20258;-60
2021/09/23 10:56:01;;;;;;;;;;;23.80;50.30;;;;;;5080927;28;20009;-61
2021/09/23 10:58:28;;;;;;;;;;;23.80;50.20;;;;;;5068111;28;19947;-61
2021/09/23 11:00:56;;;;;;;;;;;23.80;50.30;;;;;;5073521;28;19928;-61
2021/09/23 11:03:29;;;;;;;;;;;23.80;50.30;;;;;;5083113;28;19924;-61
2021/09/23 11:05:57;;;;;;;;;;;23.80;50.30;;;;;;5068722;28;20024;-61
2021/09/23 11:08:26;;;;;;;;;;;23.80;50.30;;;;;;5064565;28;19931;-61
2021/09/23 11:10:53;;;;;;;;;;;23.80;50.30;;;;;;5073172;28;19924;-61
2021/09/23 11:13:20;;;;;;;;;;;23.80;50.30;;;;;;5064650;28;19931;-61
2021/09/23 11:15:47;;;;;;;;;;;23.80;50.30;;;;;;5055223;28;19924;-61
2021/09/23 11:18:14;;;;;;;;;;;23.80;50.30;;;;;;5061810;28;19970;-62
2021/09/23 11:20:44;;;;;;;;;;;23.80;50.40;;;;;;5077423;28;19952;-62
2021/09/23 11:23:12;;;;;;;;;;;23.80;50.30;;;;;;5085769;28;19950;-62
2021/09/23 11:25:45;;;;;;;;;;;23.80;50.30;;;;;;5072914;28;19932;-62
2021/09/23 11:28:12;;;;;;;;;;;23.80;50.40;;;;;;5069024;28;20018;-62
2021/09/23 11:30:39;;;;;;;;;;;23.80;50.30;;;;;;5057843;28;19925;-61
2021/09/23 11:33:08;;;;;;;;;;;23.80;50.30;;;;;;5075760;28;19928;-62
2021/09/23 11:35:39;;;;;;;;;;;23.80;50.30;;;;;;5076579;28;19931;-62
2021/09/23 11:38:06;;;;;;;;;;;23.90;50.40;;;;;;5075945;28;20379;-62
2021/09/23 11:40:35;;;;;;;;;;;23.80;50.30;;;;;;5059102;28;19971;-62
2021/09/23 11:43:03;;;;;;;;;;;23.90;50.30;;;;;;5075011;28;20342;-62
2021/09/23 11:45:33;;;;;;;;;;;23.80;50.30;;;;;;5076290;28;19967;-62
2021/09/23 11:48:03;;;;;;;;;;;23.80;50.30;;;;;;5074463;28;19928;-62
2021/09/23 11:50:30;;;;;;;;;;;23.90;50.30;;;;;;5075644;28;19957;-62
2021/09/23 11:52:59;;;;;;;;;;;23.90;50.30;;;;;;5058748;28;19925;-62
2021/09/23 11:55:27;;;;;;;;;;;23.90;50.30;;;;;;5075611;28;19931;-62
2021/09/23 11:58:01;;;;;;;;;;;23.90;50.30;;;;;;5061334;28;19928;-62
2021/09/23 12:00:39;;;;;;;;;;;23.90;50.30;;;;;;5058785;28;20029;-62
2021/09/23 12:03:07;;;;;;;;;;;23.90;50.30;;;;;;5073765;28;19925;-62
2021/09/23 12:05:35;;;;;;;;;;;23.90;50.30;;;;;;5059561;28;19974;-62
2021/09/23 12:08:08;;;;;;;;;;;23.90;50.30;;;;;;5104512;28;19925;-62
2021/09/23 12:10:50;;;;;;;;;;;23.90;50.30;;;;;;5076180;28;19930;-62
2021/09/23 12:13:24;;;;;;;;;;;23.90;50.40;;;;;;5075035;28;19928;-62
2021/09/23 12:15:56;;;;;;;;;;;23.90;50.30;;;;;;5073472;28;19960;-62
2021/09/23 12:18:24;;;;;;;;;;;23.90;50.30;;;;;;5060134;28;19948;-62
2021/09/23 12:20:53;;;;;;;;;;;23.90;50.30;;;;;;5071945;28;19928;-61
2021/09/23 12:23:23;;;;;;;;;;;23.90;50.30;;;;;;5075726;28;20430;-62
2021/09/23 12:26:09;;;;;;;;;;;23.90;50.30;;;;;;5075686;28;19939;-62
2021/09/23 12:28:45;;;;;;;;;;;23.90;50.30;;;;;;5075649;28;19924;-62
2021/09/23 12:31:16;;;;;;;;;;;23.90;50.30;;;;;;5061527;28;20030;-62
2021/09/23 12:33:58;;;;;;;;;;;23.90;50.40;;;;;;5059415;28;19925;-62
2021/09/23 12:36:27;;;;;;;;;;;23.90;50.40;;;;;;5104340;27;19948;-62
2021/09/23 12:39:06;;;;;;;;;;;23.90;50.30;;;;;;5075743;28;19933;-62
2021/09/23 12:41:33;;;;;;;;;;;23.90;50.30;;;;;;5059368;28;20016;-62
2021/09/23 12:44:04;;;;;;;;;;;23.90;50.30;;;;;;5066453;28;20281;-62
2021/09/23 12:46:32;;;;;;;;;;;23.90;50.30;;;;;;5075276;28;19924;-62
2021/09/23 12:49:12;;;;;;;;;;;23.90;50.30;;;;;;5073960;28;20395;-62
2021/09/23 12:51:39;;;;;;;;;;;23.90;50.30;;;;;;5061569;28;19963;-62
2021/09/23 12:54:17;;;;;;;;;;;23.90;50.30;;;;;;5070225;28;19931;-62
2021/09/23 12:56:44;;;;;;;;;;;23.90;50.30;;;;;;5074698;28;19928;-62
2021/09/23 12:59:21;;;;;;;;;;;23.90;50.30;;;;;;5087456;28;19928;-63
2021/09/23 13:01:49;;;;;;;;;;;23.90;50.30;;;;;;5090332;28;20383;-62
2021/09/23 13:04:23;;;;;;;;;;;23.90;50.30;;;;;;5091608;28;19972;-62
2021/09/23 13:06:51;;;;;;;;;;;23.90;50.40;;;;;;5079224;28;19924;-62
2021/09/23 13:09:21;;;;;;;;;;;23.90;50.40;;;;;;5074300;28;20265;-62
2021/09/23 13:11:48;;;;;;;;;;;23.90;50.40;;;;;;5072705;28;19932;-62
2021/09/23 13:14:19;;;;;;;;;;;23.90;50.40;;;;;;5073885;28;19947;-63
2021/09/23 13:16:46;;;;;;;;;;;23.90;50.30;;;;;;5073895;28;19963;-62
2021/09/23 13:19:13;;;;;;;;;;;23.90;50.40;;;;;;5066308;28;20399;-62
2021/09/23 13:21:40;;;;;;;;;;;23.90;50.40;;;;;;5107139;27;19955;-62
2021/09/23 13:24:07;;;;;;;;;;;23.90;50.40;;;;;;5074445;28;19925;-62
2021/09/23 13:26:34;;;;;;;;;;;23.90;50.40;;;;;;5072453;28;19948;-63
2021/09/23 13:29:01;;;;;;;;;;;23.90;50.50;;;;;;5074527;28;19928;-63
2021/09/23 13:31:31;;;;;;;;;;;23.90;51.00;;;;;;5071727;28;20407;-62
2021/09/23 13:33:58;;;;;;;;;;;23.90;50.40;;;;;;5059432;28;20602;-62
2021/09/23 13:36:25;;;;;;;;;;;23.90;50.40;;;;;;5072507;28;19924;-62
2021/09/23 13:38:53;;;;;;;;;;;23.90;50.40;;;;;;5059005;28;19936;-62
2021/09/23 13:41:23;;;;;;;;;;;23.90;50.40;;;;;;5074151;28;19974;-62
2021/09/23 13:43:50;;;;;;;;;;;24.00;50.50;;;;;;5074675;28;19985;-62
2021/09/23 13:46:17;;;;;;;;;;;24.00;50.50;;;;;;5055293;28;20004;-62
2021/09/23 13:48:44;;;;;;;;;;;24.00;50.50;;;;;;5073939;28;19924;-62
2021/09/23 13:51:14;;;;;;;;;;;24.00;50.50;;;;;;5089883;28;20006;-63
2021/09/23 13:53:41;;;;;;;;;;;23.90;50.50;;;;;;5056438;28;19929;-62
2021/09/23 13:56:08;;;;;;;;;;;24.00;50.60;;;;;;5073550;28;19924;-62
2021/09/23 13:58:35;;;;;;;;;;;24.00;50.60;;;;;;5071306;28;19925;-62
2021/09/23 14:01:02;;;;;;;;;;;24.00;50.50;;;;;;5074302;28;20031;-62
2021/09/23 14:03:31;;;;;;;;;;;24.00;50.50;;;;;;5073741;28;19928;-62
2021/09/23 14:05:59;;;;;;;;;;;24.00;50.60;;;;;;5071383;28;19978;-62
2021/09/23 14:08:27;;;;;;;;;;;24.00;50.60;;;;;;5070595;28;20273;-62
2021/09/23 14:10:54;;;;;;;;;;;24.00;50.60;;;;;;5072643;28;20376;-62
2021/09/23 14:13:21;;;;;;;;;;;24.00;50.60;;;;;;5072322;28;19924;-62
2021/09/23 14:15:48;;;;;;;;;;;24.00;50.70;;;;;;5073623;28;20264;-62
2021/09/23 14:18:15;;;;;;;;;;;24.00;50.60;;;;;;5070408;28;19924;-62
2021/09/23 14:21:02;;;;;;;;;;;23.90;50.50;;;;;;5073457;28;19928;-62
2021/09/23 14:23:29;;;;;;;;;;;24.00;50.70;;;;;;5073601;28;20011;-62